sensor_id;sensor_type;location;lat;lon;timestamp;temperature;humidity
12384;DHT22;6256;63.808;20.336;2023-06-10T00:01:52;3.90;99.90
12384;DHT22;6256;63.808;20.336;2023-06-10T00:04:20;3.90;99.90
12384;DHT22;6256;63.808;20.336;2023-06-10T00:06:46;3.80;99.90
12384;DHT22;6256;63.808;20.336;2023-06-10T00:09:15;3.80;99.90
12384;DHT22;6256;63.808;20.336;2023-06-10T00:11:41;3.70;99.90
12384;DHT22;6256;63.808;20.336;2023-06-10T00:14:07;3.70;99.90
12384;DHT22;6256;63.808;20.336;2023-06-10T00:16:33;3.60;99.90
12384;DHT22;6256;63.808;20.336;2023-06-10T00:19:00;3.60;99.90
12384;DHT22;6256;63.808;20.336;2023-06-10T00:21:33;3.60;99.90
12384;DHT22;6256;63.808;20.336;2023-06-10T00:24:10;3.60;99.90
12384;DHT22;6256;63.808;20.336;2023-06-10T00:26:38;3.60;99.90
12384;DHT22;6256;63.808;20.336;2023-06-10T00:29:04;3.60;99.90
12384;DHT22;6256;63.808;20.336;2023-06-10T00:31:30;3.50;99.90
12384;DHT22;6256;63.808;20.336;2023-06-10T00:33:55;3.50;99.90
12384;DHT22;6256;63.808;20.336;2023-06-10T00:36:21;3.50;99.90
12384;DHT22;6256;63.808;20.336;2023-06-10T00:38:47;3.40;99.90
12384;DHT22;6256;63.808;20.336;2023-06-10T00:41:13;3.40;99.90
12384;DHT22;6256;63.808;20.336;2023-06-10T00:43:40;3.40;99.90
12384;DHT22;6256;63.808;20.336;2023-06-10T00:46:05;3.30;99.90
12384;DHT22;6256;63.808;20.336;2023-06-10T00:48:32;3.30;99.90
12384;DHT22;6256;63.808;20.336;2023-06-10T00:50:58;3.30;99.90
12384;DHT22;6256;63.808;20.336;2023-06-10T00:53:25;3.20;99.90
12384;DHT22;6256;63.808;20.336;2023-06-10T00:55:51;3.20;99.90
12384;DHT22;6256;63.808;20.336;2023-06-10T00:58:17;3.20;99.90
12384;DHT22;6256;63.808;20.336;2023-06-10T01:00:43;3.20;99.90
12384;DHT22;6256;63.808;20.336;2023-06-10T01:03:10;3.20;99.90
12384;DHT22;6256;63.808;20.336;2023-06-10T01:05:38;3.20;99.90
12384;DHT22;6256;63.808;20.336;2023-06-10T01:08:19;3.20;99.90
12384;DHT22;6256;63.808;20.336;2023-06-10T01:11:13;3.10;99.90
12384;DHT22;6256;63.808;20.336;2023-06-10T01:13:41;3.10;99.90
12384;DHT22;6256;63.808;20.336;2023-06-10T01:16:07;3.10;99.90
12384;DHT22;6256;63.808;20.336;2023-06-10T01:18:34;3.10;99.90
12384;DHT22;6256;63.808;20.336;2023-06-10T01:20:59;3.10;99.90
12384;DHT22;6256;63.808;20.336;2023-06-10T01:23:25;3.10;99.90
12384;DHT22;6256;63.808;20.336;2023-06-10T01:26:02;3.10;99.90
12384;DHT22;6256;63.808;20.336;2023-06-10T01:28:44;3.10;99.90
12384;DHT22;6256;63.808;20.336;2023-06-10T01:31:41;3.10;99.90
12384;DHT22;6256;63.808;20.336;2023-06-10T01:34:10;3.10;99.90
12384;DHT22;6256;63.808;20.336;2023-06-10T01:36:37;3.10;99.90
12384;DHT22;6256;63.808;20.336;2023-06-10T01:39:04;3.10;99.90
12384;DHT22;6256;63.808;20.336;2023-06-10T01:41:31;3.10;99.90
12384;DHT22;6256;63.808;20.336;2023-06-10T01:43:58;3.10;99.90
12384;DHT22;6256;63.808;20.336;2023-06-10T01:46:26;3.10;99.90
12384;DHT22;6256;63.808;20.336;2023-06-10T01:48:52;3.20;99.90
12384;DHT22;6256;63.808;20.336;2023-06-10T01:51:18;3.20;99.90
12384;DHT22;6256;63.808;20.336;2023-06-10T01:53:43;3.30;99.90
12384;DHT22;6256;63.808;20.336;2023-06-10T01:56:09;3.30;99.90
12384;DHT22;6256;63.808;20.336;2023-06-10T01:58:35;3.30;99.90
12384;DHT22;6256;63.808;20.336;2023-06-10T02:01:01;3.40;99.90
12384;DHT22;6256;63.808;20.336;2023-06-10T02:03:26;3.40;99.90
12384;DHT22;6256;63.808;20.336;2023-06-10T02:05:52;3.40;99.90
12384;DHT22;6256;63.808;20.336;2023-06-10T02:08:18;3.50;99.90
12384;DHT22;6256;63.808;20.336;2023-06-10T02:10:44;3.50;99.90
12384;DHT22;6256;63.808;20.336;2023-06-10T02:13:09;3.60;99.90
12384;DHT22;6256;63.808;20.336;2023-06-10T02:15:35;3.60;99.90
12384;DHT22;6256;63.808;20.336;2023-06-10T02:18:01;3.70;99.90
12384;DHT22;6256;63.808;20.336;2023-06-10T02:20:27;3.70;99.90
12384;DHT22;6256;63.808;20.336;2023-06-10T02:22:53;3.80;99.90
12384;DHT22;6256;63.808;20.336;2023-06-10T02:25:19;3.80;99.90
12384;DHT22;6256;63.808;20.336;2023-06-10T02:27:45;3.90;99.90
12384;DHT22;6256;63.808;20.336;2023-06-10T02:30:11;4.00;99.90
12384;DHT22;6256;63.808;20.336;2023-06-10T02:32:39;4.00;99.90
12384;DHT22;6256;63.808;20.336;2023-06-10T02:35:05;4.10;99.90
12384;DHT22;6256;63.808;20.336;2023-06-10T02:37:31;4.20;99.90
12384;DHT22;6256;63.808;20.336;2023-06-10T02:39:56;4.20;99.90
12384;DHT22;6256;63.808;20.336;2023-06-10T02:42:22;4.30;99.90
12384;DHT22;6256;63.808;20.336;2023-06-10T02:44:48;4.30;99.90
12384;DHT22;6256;63.808;20.336;2023-06-10T02:47:13;4.40;99.90
12384;DHT22;6256;63.808;20.336;2023-06-10T02:49:39;4.50;99.90
12384;DHT22;6256;63.808;20.336;2023-06-10T02:52:05;4.60;99.90
12384;DHT22;6256;63.808;20.336;2023-06-10T02:54:32;4.70;99.90
12384;DHT22;6256;63.808;20.336;2023-06-10T02:57:01;4.80;99.90
12384;DHT22;6256;63.808;20.336;2023-06-10T02:59:27;4.90;99.90
12384;DHT22;6256;63.808;20.336;2023-06-10T03:01:54;5.00;99.90
12384;DHT22;6256;63.808;20.336;2023-06-10T03:04:19;5.20;99.90
12384;DHT22;6256;63.808;20.336;2023-06-10T03:06:46;5.30;99.90
12384;DHT22;6256;63.808;20.336;2023-06-10T03:09:12;5.40;99.90
12384;DHT22;6256;63.808;20.336;2023-06-10T03:11:38;5.60;99.90
12384;DHT22;6256;63.808;20.336;2023-06-10T03:14:04;5.60;99.90
12384;DHT22;6256;63.808;20.336;2023-06-10T03:16:30;5.70;99.90
12384;DHT22;6256;63.808;20.336;2023-06-10T03:18:56;5.80;99.90
12384;DHT22;6256;63.808;20.336;2023-06-10T03:21:22;6.00;99.90
12384;DHT22;6256;63.808;20.336;2023-06-10T03:23:48;6.10;99.90
12384;DHT22;6256;63.808;20.336;2023-06-10T03:26:14;6.20;99.90
12384;DHT22;6256;63.808;20.336;2023-06-10T03:28:41;6.30;99.90
12384;DHT22;6256;63.808;20.336;2023-06-10T03:31:07;6.40;99.90
12384;DHT22;6256;63.808;20.336;2023-06-10T03:33:32;6.50;99.90
12384;DHT22;6256;63.808;20.336;2023-06-10T03:35:58;6.60;99.90
12384;DHT22;6256;63.808;20.336;2023-06-10T03:38:24;6.70;99.90
12384;DHT22;6256;63.808;20.336;2023-06-10T03:40:50;6.80;99.90
12384;DHT22;6256;63.808;20.336;2023-06-10T03:43:15;7.00;99.90
12384;DHT22;6256;63.808;20.336;2023-06-10T03:45:41;7.10;99.90
12384;DHT22;6256;63.808;20.336;2023-06-10T03:48:07;7.20;99.90
12384;DHT22;6256;63.808;20.336;2023-06-10T03:50:34;7.40;99.90
12384;DHT22;6256;63.808;20.336;2023-06-10T03:52:59;7.50;99.90
12384;DHT22;6256;63.808;20.336;2023-06-10T03:55:25;7.60;99.90
12384;DHT22;6256;63.808;20.336;2023-06-10T03:57:51;7.80;99.90
12384;DHT22;6256;63.808;20.336;2023-06-10T04:00:17;7.80;99.90
12384;DHT22;6256;63.808;20.336;2023-06-10T04:02:43;8.00;99.90
12384;DHT22;6256;63.808;20.336;2023-06-10T04:05:15;8.10;99.90
12384;DHT22;6256;63.808;20.336;2023-06-10T04:07:42;8.30;99.90
12384;DHT22;6256;63.808;20.336;2023-06-10T04:10:08;8.50;99.90
12384;DHT22;6256;63.808;20.336;2023-06-10T04:12:35;8.70;99.90
12384;DHT22;6256;63.808;20.336;2023-06-10T04:15:01;8.80;99.90
12384;DHT22;6256;63.808;20.336;2023-06-10T04:17:27;9.00;99.90
12384;DHT22;6256;63.808;20.336;2023-06-10T04:19:53;9.10;99.90
12384;DHT22;6256;63.808;20.336;2023-06-10T04:22:20;9.20;99.90
12384;DHT22;6256;63.808;20.336;2023-06-10T04:24:46;9.30;99.90
12384;DHT22;6256;63.808;20.336;2023-06-10T04:27:11;9.40;99.90
12384;DHT22;6256;63.808;20.336;2023-06-10T04:29:37;9.50;99.90
12384;DHT22;6256;63.808;20.336;2023-06-10T04:32:03;9.60;99.90
12384;DHT22;6256;63.808;20.336;2023-06-10T04:34:31;9.70;99.90
12384;DHT22;6256;63.808;20.336;2023-06-10T04:36:56;9.80;99.90
12384;DHT22;6256;63.808;20.336;2023-06-10T04:39:22;9.90;99.90
12384;DHT22;6256;63.808;20.336;2023-06-10T04:41:48;10.00;99.90
12384;DHT22;6256;63.808;20.336;2023-06-10T04:44:13;10.10;99.90
12384;DHT22;6256;63.808;20.336;2023-06-10T04:46:39;10.20;99.90
12384;DHT22;6256;63.808;20.336;2023-06-10T04:49:05;10.30;99.90
12384;DHT22;6256;63.808;20.336;2023-06-10T04:51:31;10.40;99.90
12384;DHT22;6256;63.808;20.336;2023-06-10T04:54:00;10.50;99.90
12384;DHT22;6256;63.808;20.336;2023-06-10T04:56:30;10.60;99.90
12384;DHT22;6256;63.808;20.336;2023-06-10T04:58:56;10.70;99.90
12384;DHT22;6256;63.808;20.336;2023-06-10T05:01:22;10.80;99.90
12384;DHT22;6256;63.808;20.336;2023-06-10T05:03:48;10.90;99.40
12384;DHT22;6256;63.808;20.336;2023-06-10T05:06:14;11.00;98.90
12384;DHT22;6256;63.808;20.336;2023-06-10T05:08:39;11.10;98.80
12384;DHT22;6256;63.808;20.336;2023-06-10T05:11:05;11.10;97.90
12384;DHT22;6256;63.808;20.336;2023-06-10T05:13:31;11.20;97.30
12384;DHT22;6256;63.808;20.336;2023-06-10T05:15:58;11.20;97.90
12384;DHT22;6256;63.808;20.336;2023-06-10T05:18:24;11.30;97.40
12384;DHT22;6256;63.808;20.336;2023-06-10T05:20:50;11.40;97.40
12384;DHT22;6256;63.808;20.336;2023-06-10T05:23:16;11.40;98.00
12384;DHT22;6256;63.808;20.336;2023-06-10T05:25:42;11.50;99.50
12384;DHT22;6256;63.808;20.336;2023-06-10T05:28:08;11.50;98.10
12384;DHT22;6256;63.808;20.336;2023-06-10T05:30:37;11.50;95.80
12384;DHT22;6256;63.808;20.336;2023-06-10T05:33:03;11.50;96.50
12384;DHT22;6256;63.808;20.336;2023-06-10T05:35:29;11.60;97.60
12384;DHT22;6256;63.808;20.336;2023-06-10T05:37:55;11.60;96.20
12384;DHT22;6256;63.808;20.336;2023-06-10T05:40:21;11.70;96.20
12384;DHT22;6256;63.808;20.336;2023-06-10T05:42:47;11.80;97.50
12384;DHT22;6256;63.808;20.336;2023-06-10T05:45:12;11.70;97.00
12384;DHT22;6256;63.808;20.336;2023-06-10T05:47:38;11.70;97.40
12384;DHT22;6256;63.808;20.336;2023-06-10T05:50:04;11.70;98.40
12384;DHT22;6256;63.808;20.336;2023-06-10T05:52:35;11.70;99.80
12384;DHT22;6256;63.808;20.336;2023-06-10T05:55:02;11.80;99.90
12384;DHT22;6256;63.808;20.336;2023-06-10T05:57:28;11.80;99.90
12384;DHT22;6256;63.808;20.336;2023-06-10T05:59:54;11.90;99.90
12384;DHT22;6256;63.808;20.336;2023-06-10T06:02:19;11.90;99.90
12384;DHT22;6256;63.808;20.336;2023-06-10T06:04:45;11.80;99.90
12384;DHT22;6256;63.808;20.336;2023-06-10T06:07:11;11.80;99.90
12384;DHT22;6256;63.808;20.336;2023-06-10T06:09:37;11.80;99.90
12384;DHT22;6256;63.808;20.336;2023-06-10T06:12:02;11.80;99.90
12384;DHT22;6256;63.808;20.336;2023-06-10T06:14:31;11.90;99.90
12384;DHT22;6256;63.808;20.336;2023-06-10T06:16:57;11.90;99.90
12384;DHT22;6256;63.808;20.336;2023-06-10T06:19:23;12.00;99.90
12384;DHT22;6256;63.808;20.336;2023-06-10T06:21:48;12.00;99.90
12384;DHT22;6256;63.808;20.336;2023-06-10T06:24:15;12.10;99.90
12384;DHT22;6256;63.808;20.336;2023-06-10T06:26:41;12.20;99.90
12384;DHT22;6256;63.808;20.336;2023-06-10T06:29:07;12.30;99.90
12384;DHT22;6256;63.808;20.336;2023-06-10T06:31:33;12.30;99.90
12384;DHT22;6256;63.808;20.336;2023-06-10T06:33:59;12.40;99.90
12384;DHT22;6256;63.808;20.336;2023-06-10T06:36:25;12.40;99.90
12384;DHT22;6256;63.808;20.336;2023-06-10T06:38:50;12.40;99.90
12384;DHT22;6256;63.808;20.336;2023-06-10T06:41:16;12.40;99.90
12384;DHT22;6256;63.808;20.336;2023-06-10T06:43:42;12.40;99.90
12384;DHT22;6256;63.808;20.336;2023-06-10T06:46:08;12.30;99.90
12384;DHT22;6256;63.808;20.336;2023-06-10T06:48:34;12.30;99.90
12384;DHT22;6256;63.808;20.336;2023-06-10T06:51:00;12.40;99.90
12384;DHT22;6256;63.808;20.336;2023-06-10T06:53:25;12.50;99.90
12384;DHT22;6256;63.808;20.336;2023-06-10T06:55:51;12.60;99.90
12384;DHT22;6256;63.808;20.336;2023-06-10T06:58:17;12.70;99.40
12384;DHT22;6256;63.808;20.336;2023-06-10T07:00:43;12.70;99.80
12384;DHT22;6256;63.808;20.336;2023-06-10T07:03:08;12.70;99.90
12384;DHT22;6256;63.808;20.336;2023-06-10T07:05:34;12.70;99.50
12384;DHT22;6256;63.808;20.336;2023-06-10T07:08:00;12.80;99.90
12384;DHT22;6256;63.808;20.336;2023-06-10T07:10:26;12.80;99.80
12384;DHT22;6256;63.808;20.336;2023-06-10T07:12:52;12.80;99.90
12384;DHT22;6256;63.808;20.336;2023-06-10T07:15:18;12.80;99.60
12384;DHT22;6256;63.808;20.336;2023-06-10T07:17:44;12.90;99.10
12384;DHT22;6256;63.808;20.336;2023-06-10T07:20:10;12.80;98.30
12384;DHT22;6256;63.808;20.336;2023-06-10T07:22:36;12.90;98.70
12384;DHT22;6256;63.808;20.336;2023-06-10T07:25:04;13.00;98.90
12384;DHT22;6256;63.808;20.336;2023-06-10T07:27:30;13.00;96.90
12384;DHT22;6256;63.808;20.336;2023-06-10T07:29:56;13.00;97.80
12384;DHT22;6256;63.808;20.336;2023-06-10T07:32:22;13.00;97.80
12384;DHT22;6256;63.808;20.336;2023-06-10T07:34:49;12.90;97.00
12384;DHT22;6256;63.808;20.336;2023-06-10T07:37:15;13.00;97.60
12384;DHT22;6256;63.808;20.336;2023-06-10T07:39:41;13.10;98.20
12384;DHT22;6256;63.808;20.336;2023-06-10T07:42:08;13.10;97.60
12384;DHT22;6256;63.808;20.336;2023-06-10T07:44:34;13.20;98.20
12384;DHT22;6256;63.808;20.336;2023-06-10T07:47:00;13.20;99.00
12384;DHT22;6256;63.808;20.336;2023-06-10T07:49:25;13.30;97.90
12384;DHT22;6256;63.808;20.336;2023-06-10T07:51:54;13.40;97.30
12384;DHT22;6256;63.808;20.336;2023-06-10T07:54:21;13.50;97.30
12384;DHT22;6256;63.808;20.336;2023-06-10T07:56:46;13.50;97.10
12384;DHT22;6256;63.808;20.336;2023-06-10T07:59:13;13.30;95.10
12384;DHT22;6256;63.808;20.336;2023-06-10T08:01:39;13.30;96.70
12384;DHT22;6256;63.808;20.336;2023-06-10T08:04:06;13.10;95.60
12384;DHT22;6256;63.808;20.336;2023-06-10T08:06:31;13.00;95.60
12384;DHT22;6256;63.808;20.336;2023-06-10T08:08:57;13.10;96.80
12384;DHT22;6256;63.808;20.336;2023-06-10T08:11:23;13.10;96.40
12384;DHT22;6256;63.808;20.336;2023-06-10T08:13:49;13.00;96.10
12384;DHT22;6256;63.808;20.336;2023-06-10T08:16:16;13.00;96.20
12384;DHT22;6256;63.808;20.336;2023-06-10T08:18:41;13.00;95.60
12384;DHT22;6256;63.808;20.336;2023-06-10T08:21:07;13.10;96.20
12384;DHT22;6256;63.808;20.336;2023-06-10T08:23:33;13.20;96.70
12384;DHT22;6256;63.808;20.336;2023-06-10T08:25:59;12.90;95.50
12384;DHT22;6256;63.808;20.336;2023-06-10T08:28:24;13.10;95.60
12384;DHT22;6256;63.808;20.336;2023-06-10T08:30:50;13.00;94.30
12384;DHT22;6256;63.808;20.336;2023-06-10T08:33:16;13.20;94.50
12384;DHT22;6256;63.808;20.336;2023-06-10T08:35:41;13.30;95.10
12384;DHT22;6256;63.808;20.336;2023-06-10T08:38:07;13.20;95.00
12384;DHT22;6256;63.808;20.336;2023-06-10T08:40:34;13.50;94.90
12384;DHT22;6256;63.808;20.336;2023-06-10T08:43:07;13.60;92.90
12384;DHT22;6256;63.808;20.336;2023-06-10T08:45:35;13.60;93.40
12384;DHT22;6256;63.808;20.336;2023-06-10T08:48:03;13.40;92.30
12384;DHT22;6256;63.808;20.336;2023-06-10T08:50:36;13.40;93.80
12384;DHT22;6256;63.808;20.336;2023-06-10T08:53:05;13.40;93.10
12384;DHT22;6256;63.808;20.336;2023-06-10T08:55:40;13.50;92.90
12384;DHT22;6256;63.808;20.336;2023-06-10T08:58:07;13.70;93.20
12384;DHT22;6256;63.808;20.336;2023-06-10T09:00:34;13.80;92.80
12384;DHT22;6256;63.808;20.336;2023-06-10T09:03:00;13.70;91.90
12384;DHT22;6256;63.808;20.336;2023-06-10T09:05:27;13.70;92.70
12384;DHT22;6256;63.808;20.336;2023-06-10T09:07:56;13.80;92.80
12384;DHT22;6256;63.808;20.336;2023-06-10T09:10:22;13.80;92.90
12384;DHT22;6256;63.808;20.336;2023-06-10T09:12:48;13.80;93.50
12384;DHT22;6256;63.808;20.336;2023-06-10T09:15:14;14.00;93.40
12384;DHT22;6256;63.808;20.336;2023-06-10T09:17:40;14.10;93.10
12384;DHT22;6256;63.808;20.336;2023-06-10T09:20:07;14.20;93.50
12384;DHT22;6256;63.808;20.336;2023-06-10T09:22:33;14.30;93.20
12384;DHT22;6256;63.808;20.336;2023-06-10T09:25:07;14.30;94.20
12384;DHT22;6256;63.808;20.336;2023-06-10T09:27:51;14.40;92.70
12384;DHT22;6256;63.808;20.336;2023-06-10T09:30:32;14.50;93.60
12384;DHT22;6256;63.808;20.336;2023-06-10T09:33:01;14.70;93.60
12384;DHT22;6256;63.808;20.336;2023-06-10T09:35:28;14.80;92.30
12384;DHT22;6256;63.808;20.336;2023-06-10T09:37:59;14.80;91.20
12384;DHT22;6256;63.808;20.336;2023-06-10T09:40:25;14.70;91.20
12384;DHT22;6256;63.808;20.336;2023-06-10T09:42:59;14.70;90.90
12384;DHT22;6256;63.808;20.336;2023-06-10T09:45:30;14.80;93.00
12384;DHT22;6256;63.808;20.336;2023-06-10T09:47:56;15.10;91.30
12384;DHT22;6256;63.808;20.336;2023-06-10T09:50:22;15.20;90.60
12384;DHT22;6256;63.808;20.336;2023-06-10T09:52:50;15.10;90.60
12384;DHT22;6256;63.808;20.336;2023-06-10T09:55:16;15.10;89.30
12384;DHT22;6256;63.808;20.336;2023-06-10T10:00:13;15.30;88.10
12384;DHT22;6256;63.808;20.336;2023-06-10T10:02:52;15.50;90.40
12384;DHT22;6256;63.808;20.336;2023-06-10T10:07:47;15.90;87.70
12384;DHT22;6256;63.808;20.336;2023-06-10T10:10:14;15.70;84.00
12384;DHT22;6256;63.808;20.336;2023-06-10T10:12:42;15.30;84.50
12384;DHT22;6256;63.808;20.336;2023-06-10T10:15:09;15.20;87.00
12384;DHT22;6256;63.808;20.336;2023-06-10T10:17:47;15.00;85.90
12384;DHT22;6256;63.808;20.336;2023-06-10T10:20:17;14.80;86.90
12384;DHT22;6256;63.808;20.336;2023-06-10T10:22:46;15.10;87.40
12384;DHT22;6256;63.808;20.336;2023-06-10T10:25:16;15.20;86.10
12384;DHT22;6256;63.808;20.336;2023-06-10T10:27:56;15.50;85.20
12384;DHT22;6256;63.808;20.336;2023-06-10T10:30:23;15.30;81.70
12384;DHT22;6256;63.808;20.336;2023-06-10T10:35:37;15.90;82.10
12384;DHT22;6256;63.808;20.336;2023-06-10T10:38:04;15.90;81.50
12384;DHT22;6256;63.808;20.336;2023-06-10T10:40:30;15.90;79.20
12384;DHT22;6256;63.808;20.336;2023-06-10T10:42:58;16.00;79.00
12384;DHT22;6256;63.808;20.336;2023-06-10T10:45:24;16.00;78.90
12384;DHT22;6256;63.808;20.336;2023-06-10T10:47:54;16.40;79.80
12384;DHT22;6256;63.808;20.336;2023-06-10T10:50:21;16.30;76.80
12384;DHT22;6256;63.808;20.336;2023-06-10T10:52:56;16.30;76.50
12384;DHT22;6256;63.808;20.336;2023-06-10T10:55:25;16.20;74.90
12384;DHT22;6256;63.808;20.336;2023-06-10T11:05:42;18.10;77.00
12384;DHT22;6256;63.808;20.336;2023-06-10T11:08:10;18.20;72.50
12384;DHT22;6256;63.808;20.336;2023-06-10T11:10:41;19.10;73.20
12384;DHT22;6256;63.808;20.336;2023-06-10T11:13:18;19.70;70.10
12384;DHT22;6256;63.808;20.336;2023-06-10T11:15:49;20.00;69.50
12384;DHT22;6256;63.808;20.336;2023-06-10T11:18:28;19.40;68.30
12384;DHT22;6256;63.808;20.336;2023-06-10T11:20:58;18.70;68.30
12384;DHT22;6256;63.808;20.336;2023-06-10T11:28:40;18.10;69.30
12384;DHT22;6256;63.808;20.336;2023-06-10T11:31:06;17.80;68.40
12384;DHT22;6256;63.808;20.336;2023-06-10T11:33:32;17.40;69.90
12384;DHT22;6256;63.808;20.336;2023-06-10T11:35:59;17.80;71.90
12384;DHT22;6256;63.808;20.336;2023-06-10T11:38:25;18.20;69.80
12384;DHT22;6256;63.808;20.336;2023-06-10T11:40:51;18.90;68.80
12384;DHT22;6256;63.808;20.336;2023-06-10T11:43:18;19.40;70.60
12384;DHT22;6256;63.808;20.336;2023-06-10T11:45:44;19.20;66.90
12384;DHT22;6256;63.808;20.336;2023-06-10T11:48:10;19.30;67.80
12384;DHT22;6256;63.808;20.336;2023-06-10T11:50:36;20.20;67.50
12384;DHT22;6256;63.808;20.336;2023-06-10T11:53:02;20.10;65.60
12384;DHT22;6256;63.808;20.336;2023-06-10T11:55:44;19.90;63.70
12384;DHT22;6256;63.808;20.336;2023-06-10T11:58:17;20.60;63.90
12384;DHT22;6256;63.808;20.336;2023-06-10T12:00:51;20.90;64.90
12384;DHT22;6256;63.808;20.336;2023-06-10T12:03:19;21.20;62.50
12384;DHT22;6256;63.808;20.336;2023-06-10T12:08:24;21.60;62.60
12384;DHT22;6256;63.808;20.336;2023-06-10T12:10:50;22.00;62.50
12384;DHT22;6256;63.808;20.336;2023-06-10T12:13:16;21.40;61.80
12384;DHT22;6256;63.808;20.336;2023-06-10T12:15:43;21.90;62.70
12384;DHT22;6256;63.808;20.336;2023-06-10T12:18:19;21.40;60.30
12384;DHT22;6256;63.808;20.336;2023-06-10T12:20:45;21.40;59.40
12384;DHT22;6256;63.808;20.336;2023-06-10T12:23:11;21.60;62.20
12384;DHT22;6256;63.808;20.336;2023-06-10T12:25:38;19.80;60.40
12384;DHT22;6256;63.808;20.336;2023-06-10T12:28:04;19.80;61.70
12384;DHT22;6256;63.808;20.336;2023-06-10T12:30:30;21.10;62.50
12384;DHT22;6256;63.808;20.336;2023-06-10T12:32:57;21.50;60.40
12384;DHT22;6256;63.808;20.336;2023-06-10T12:35:24;22.10;60.00
12384;DHT22;6256;63.808;20.336;2023-06-10T12:38:02;21.70;59.00
12384;DHT22;6256;63.808;20.336;2023-06-10T12:40:36;22.70;58.90
12384;DHT22;6256;63.808;20.336;2023-06-10T12:43:03;22.40;58.60
12384;DHT22;6256;63.808;20.336;2023-06-10T12:45:36;22.60;58.80
12384;DHT22;6256;63.808;20.336;2023-06-10T12:48:17;22.10;59.00
12384;DHT22;6256;63.808;20.336;2023-06-10T12:50:43;23.40;59.40
12384;DHT22;6256;63.808;20.336;2023-06-10T12:53:10;23.30;57.90
12384;DHT22;6256;63.808;20.336;2023-06-10T12:55:37;23.50;56.30
12384;DHT22;6256;63.808;20.336;2023-06-10T12:58:04;21.10;54.30
12384;DHT22;6256;63.808;20.336;2023-06-10T13:00:30;21.90;58.00
12384;DHT22;6256;63.808;20.336;2023-06-10T13:03:00;22.10;57.00
12384;DHT22;6256;63.808;20.336;2023-06-10T13:05:28;22.80;56.20
12384;DHT22;6256;63.808;20.336;2023-06-10T13:07:54;23.00;55.80
12384;DHT22;6256;63.808;20.336;2023-06-10T13:10:21;22.90;54.70
12384;DHT22;6256;63.808;20.336;2023-06-10T13:12:47;23.20;54.40
12384;DHT22;6256;63.808;20.336;2023-06-10T13:15:13;23.40;53.30
12384;DHT22;6256;63.808;20.336;2023-06-10T13:17:40;22.90;54.40
12384;DHT22;6256;63.808;20.336;2023-06-10T13:20:07;22.20;54.40
12384;DHT22;6256;63.808;20.336;2023-06-10T13:22:33;21.70;54.70
12384;DHT22;6256;63.808;20.336;2023-06-10T13:25:01;23.00;54.50
12384;DHT22;6256;63.808;20.336;2023-06-10T13:27:28;22.90;55.10
12384;DHT22;6256;63.808;20.336;2023-06-10T13:29:54;22.80;54.40
12384;DHT22;6256;63.808;20.336;2023-06-10T13:32:20;23.50;54.00
12384;DHT22;6256;63.808;20.336;2023-06-10T13:34:46;23.80;53.70
12384;DHT22;6256;63.808;20.336;2023-06-10T13:37:12;24.00;52.60
12384;DHT22;6256;63.808;20.336;2023-06-10T13:39:38;23.70;52.00
12384;DHT22;6256;63.808;20.336;2023-06-10T13:42:05;23.60;54.20
12384;DHT22;6256;63.808;20.336;2023-06-10T13:44:33;23.70;54.10
12384;DHT22;6256;63.808;20.336;2023-06-10T13:47:02;24.30;52.30
12384;DHT22;6256;63.808;20.336;2023-06-10T13:49:27;24.30;51.50
12384;DHT22;6256;63.808;20.336;2023-06-10T13:51:53;24.10;51.70
12384;DHT22;6256;63.808;20.336;2023-06-10T13:54:19;24.10;53.20
12384;DHT22;6256;63.808;20.336;2023-06-10T13:56:44;24.20;52.50
12384;DHT22;6256;63.808;20.336;2023-06-10T13:59:10;24.20;52.80
12384;DHT22;6256;63.808;20.336;2023-06-10T14:01:36;22.80;52.10
12384;DHT22;6256;63.808;20.336;2023-06-10T14:04:01;22.70;52.90
12384;DHT22;6256;63.808;20.336;2023-06-10T14:06:28;22.90;51.80
12384;DHT22;6256;63.808;20.336;2023-06-10T14:08:54;23.00;51.70
12384;DHT22;6256;63.808;20.336;2023-06-10T14:11:22;22.70;52.10
12384;DHT22;6256;63.808;20.336;2023-06-10T14:13:48;22.70;52.10
12384;DHT22;6256;63.808;20.336;2023-06-10T14:16:13;22.40;51.70
12384;DHT22;6256;63.808;20.336;2023-06-10T14:18:39;22.60;52.30
12384;DHT22;6256;63.808;20.336;2023-06-10T14:21:05;22.50;51.40
12384;DHT22;6256;63.808;20.336;2023-06-10T14:23:30;22.80;51.30
12384;DHT22;6256;63.808;20.336;2023-06-10T14:25:56;22.20;50.60
12384;DHT22;6256;63.808;20.336;2023-06-10T14:28:21;21.90;51.10
12384;DHT22;6256;63.808;20.336;2023-06-10T14:30:49;21.90;52.30
12384;DHT22;6256;63.808;20.336;2023-06-10T14:33:15;21.60;50.90
12384;DHT22;6256;63.808;20.336;2023-06-10T14:35:40;22.10;52.20
12384;DHT22;6256;63.808;20.336;2023-06-10T14:38:08;21.80;51.90
12384;DHT22;6256;63.808;20.336;2023-06-10T14:40:34;22.40;51.30
12384;DHT22;6256;63.808;20.336;2023-06-10T14:42:59;22.80;51.00
12384;DHT22;6256;63.808;20.336;2023-06-10T14:45:26;23.10;51.40
12384;DHT22;6256;63.808;20.336;2023-06-10T14:47:52;22.10;48.70
12384;DHT22;6256;63.808;20.336;2023-06-10T14:50:18;22.90;53.10
12384;DHT22;6256;63.808;20.336;2023-06-10T14:52:43;23.90;50.20
12384;DHT22;6256;63.808;20.336;2023-06-10T14:55:09;23.60;50.00
12384;DHT22;6256;63.808;20.336;2023-06-10T14:57:35;24.40;50.30
12384;DHT22;6256;63.808;20.336;2023-06-10T15:00:00;24.80;50.70
12384;DHT22;6256;63.808;20.336;2023-06-10T15:02:26;23.80;49.50
12384;DHT22;6256;63.808;20.336;2023-06-10T15:04:52;24.40;49.90
12384;DHT22;6256;63.808;20.336;2023-06-10T15:07:17;24.10;50.60
12384;DHT22;6256;63.808;20.336;2023-06-10T15:09:43;22.80;50.30
12384;DHT22;6256;63.808;20.336;2023-06-10T15:12:09;23.80;50.10
12384;DHT22;6256;63.808;20.336;2023-06-10T15:14:36;24.40;49.50
12384;DHT22;6256;63.808;20.336;2023-06-10T15:17:02;23.90;49.20
12384;DHT22;6256;63.808;20.336;2023-06-10T15:19:28;23.80;49.00
12384;DHT22;6256;63.808;20.336;2023-06-10T15:21:54;24.60;49.50
12384;DHT22;6256;63.808;20.336;2023-06-10T15:24:20;24.00;49.80
12384;DHT22;6256;63.808;20.336;2023-06-10T15:26:45;25.00;49.90
12384;DHT22;6256;63.808;20.336;2023-06-10T15:29:11;24.90;49.00
12384;DHT22;6256;63.808;20.336;2023-06-10T15:31:38;25.80;49.20
12384;DHT22;6256;63.808;20.336;2023-06-10T15:34:03;25.50;47.90
12384;DHT22;6256;63.808;20.336;2023-06-10T15:36:29;26.50;48.40
12384;DHT22;6256;63.808;20.336;2023-06-10T15:39:03;27.50;47.70
12384;DHT22;6256;63.808;20.336;2023-06-10T15:41:29;27.40;46.60
12384;DHT22;6256;63.808;20.336;2023-06-10T15:43:55;25.20;49.10
12384;DHT22;6256;63.808;20.336;2023-06-10T15:46:21;26.20;48.80
12384;DHT22;6256;63.808;20.336;2023-06-10T15:48:47;26.00;47.00
12384;DHT22;6256;63.808;20.336;2023-06-10T15:51:12;26.40;46.30
12384;DHT22;6256;63.808;20.336;2023-06-10T15:53:38;25.60;47.50
12384;DHT22;6256;63.808;20.336;2023-06-10T15:56:04;26.20;46.60
12384;DHT22;6256;63.808;20.336;2023-06-10T15:58:30;25.40;47.50